Time;durP1;ratioP1;P1;durP2;ratioP2;P2;SDS_P1;SDS_P2;PMS_P1;PMS_P2;Temp;Humidity;BMP_temperature;BMP_pressure;BME280_temperature;BME280_humidity;BME280_pressure;Samples;Min_cycle;Max_cycle;Signal;HPM_P1;HPM_P2
2023/01/03 00:00:38;;;;;;;16.27;3.58;;;;;;;6.65;100.00;101920.59;4918622;29;20024;-73
2023/01/03 00:03:03;;;;;;;23.63;4.53;;;;;;;6.49;100.00;101915.38;4935719;29;20077;-74
2023/01/03 00:05:29;;;;;;;18.38;3.63;;;;;;;6.48;100.00;101912.81;4918310;29;20035;-73
2023/01/03 00:07:54;;;;;;;16.98;4.03;;;;;;;6.48;100.00;101915.50;4918385;29;20027;-73
2023/01/03 00:10:20;;;;;;;22.08;3.05;;;;;;;6.52;100.00;101919.72;4918392;29;20103;-74
2023/01/03 00:12:45;;;;;;;21.35;4.25;;;;;;;6.51;100.00;101917.97;4918580;29;20031;-74
2023/01/03 00:15:14;;;;;;;19.88;3.70;;;;;;;6.51;100.00;101926.03;4918078;29;20032;-74
2023/01/03 00:17:40;;;;;;;24.45;3.72;;;;;;;6.64;100.00;101924.22;4903073;29;20031;-74
2023/01/03 00:20:07;;;;;;;24.65;3.92;;;;;;;6.49;100.00;101941.44;4915847;29;20063;-74
2023/01/03 00:22:33;;;;;;;18.48;2.88;;;;;;;6.38;100.00;101938.63;4916285;29;20070;-74
2023/01/03 00:24:58;;;;;;;19.20;2.80;;;;;;;6.34;100.00;101943.34;4899256;29;20468;-74
2023/01/03 00:27:24;;;;;;;16.92;2.90;;;;;;;6.47;100.00;101943.38;4899426;29;20039;-74
2023/01/03 00:29:49;;;;;;;21.35;4.20;;;;;;;6.31;100.00;101943.56;4899100;29;20040;-74
2023/01/03 00:32:14;;;;;;;23.65;3.65;;;;;;;6.34;100.00;101948.75;4898705;29;20062;-74
2023/01/03 00:34:43;;;;;;;17.98;3.85;;;;;;;6.39;100.00;101951.09;4898940;29;20044;-74
2023/01/03 00:37:08;;;;;;;28.08;3.80;;;;;;;6.20;100.00;101957.75;4907863;29;20090;-74
2023/01/03 00:39:34;;;;;;;25.17;4.28;;;;;;;6.14;100.00;101968.91;4917484;29;20024;-73
2023/01/03 00:41:59;;;;;;;22.17;4.03;;;;;;;6.17;100.00;101974.06;4917726;29;20555;-74
2023/01/03 00:44:25;;;;;;;21.70;3.90;;;;;;;6.33;100.00;101978.44;4935162;29;20050;-73
2023/01/03 00:46:50;;;;;;;22.90;3.10;;;;;;;6.36;100.00;101972.84;4917264;29;20070;-75
2023/01/03 00:49:15;;;;;;;25.42;4.65;;;;;;;6.36;100.00;101983.59;4917501;29;20462;-74
2023/01/03 00:51:41;;;;;;;19.63;3.60;;;;;;;6.36;100.00;101988.97;4934573;29;20054;-73
2023/01/03 00:54:08;;;;;;;21.17;4.05;;;;;;;6.34;100.00;101996.28;4917274;29;20028;-73
2023/01/03 00:56:39;;;;;;;19.85;2.55;;;;;;;6.41;100.00;101981.47;4934189;29;20043;-74
2023/01/03 00:59:05;;;;;;;27.45;2.97;;;;;;;6.30;100.00;101984.88;4917924;29;20032;-74
2023/01/03 01:01:42;;;;;;;18.42;2.40;;;;;;;6.29;100.00;101993.03;4917694;29;20043;-74
2023/01/03 01:04:16;;;;;;;20.08;2.90;;;;;;;6.30;100.00;101994.75;4917463;29;20024;-74
2023/01/03 01:06:48;;;;;;;22.50;2.97;;;;;;;6.22;100.00;101998.84;4916856;29;20047;-74
2023/01/03 01:09:18;;;;;;;16.20;2.88;;;;;;;6.39;100.00;102002.19;4917637;29;20036;-74
2023/01/03 01:11:43;;;;;;;17.40;2.55;;;;;;;6.35;100.00;102004.25;4917358;29;20106;-74
2023/01/03 01:14:18;;;;;;;23.17;3.92;;;;;;;6.31;100.00;102012.63;4917006;29;20055;-74
2023/01/03 01:16:51;;;;;;;23.40;3.90;;;;;;;6.20;100.00;102011.53;4921309;29;20027;-74
2023/01/03 01:19:21;;;;;;;16.80;3.33;;;;;;;6.32;100.00;102003.59;4949071;29;20024;-73
2023/01/03 01:21:46;;;;;;;21.42;2.83;;;;;;;6.14;100.00;102017.31;4932931;29;20110;-74
2023/01/03 01:24:12;;;;;;;18.15;2.63;;;;;;;6.31;100.00;102012.63;4932997;29;20079;-74
2023/01/03 01:26:38;;;;;;;22.38;3.00;;;;;;;6.29;100.00;102014.56;4932747;29;20032;-75
2023/01/03 01:29:03;;;;;;;16.10;2.85;;;;;;;6.13;100.00;102026.34;4933024;29;20038;-74
2023/01/03 01:31:29;;;;;;;19.10;3.45;;;;;;;6.17;100.00;102022.47;4932682;29;20043;-74
2023/01/03 01:33:55;;;;;;;22.05;4.25;;;;;;;6.06;100.00;102025.00;4933007;29;20036;-74
2023/01/03 01:36:23;;;;;;;27.10;3.22;;;;;;;5.91;100.00;102036.75;4932428;29;20028;-74
2023/01/03 01:38:59;;;;;;;19.67;3.50;;;;;;;6.02;100.00;102034.25;4919508;29;20391;-74
2023/01/03 01:44:39;;;;;;;20.33;3.38;;;;;;;5.97;100.00;102036.38;4914816;29;20027;-74
2023/01/03 01:47:10;;;;;;;16.80;3.08;;;;;;;6.05;100.00;102042.09;4913406;29;20024;-75
2023/01/03 01:49:35;;;;;;;22.70;3.67;;;;;;;6.01;100.00;102054.03;4915121;29;20033;-74
2023/01/03 01:52:02;;;;;;;19.40;3.25;;;;;;;6.06;100.00;102046.50;4913280;29;20032;-74
2023/01/03 01:54:28;;;;;;;13.30;3.22;;;;;;;6.14;100.00;102054.09;4913740;29;20063;-74
2023/01/03 01:56:53;;;;;;;20.95;3.42;;;;;;;6.00;100.00;102046.94;4918538;29;20038;-75
2023/01/03 01:59:19;;;;;;;18.90;3.33;;;;;;;5.82;100.00;102048.09;4919804;29;20024;-74
2023/01/03 02:01:46;;;;;;;16.13;3.20;;;;;;;5.91;100.00;102047.50;4919276;29;20032;-74
2023/01/03 02:04:24;;;;;;;15.70;3.83;;;;;;;5.80;100.00;102047.31;4919992;29;20409;-74
2023/01/03 02:06:51;;;;;;;23.85;3.17;;;;;;;5.83;100.00;102060.56;4919433;29;20028;-74
2023/01/03 02:09:17;;;;;;;17.70;3.75;;;;;;;5.77;100.00;102055.56;4919868;29;20066;-74
2023/01/03 02:15:04;;;;;;;29.40;4.38;;;;;;;5.72;100.00;102075.53;4920829;29;20407;-74
2023/01/03 02:17:54;;;;;;;19.48;3.70;;;;;;;5.67;100.00;102077.69;4920884;29;20089;-74
2023/01/03 02:20:26;;;;;;;22.38;4.03;;;;;;;5.65;100.00;102066.13;4919685;29;20024;-74
2023/01/03 02:23:15;;;;;;;;;;;;;;;5.86;100.00;102060.34;4921345;29;20094;-74
2023/01/03 02:26:22;;;;;;;22.15;4.03;;;;;;;5.75;100.00;102068.25;4902909;29;20328;-73
2023/01/03 02:29:19;;;;;;;38.40;4.32;;;;;;;5.78;100.00;102078.81;4919791;29;20062;-72
2023/01/03 02:32:11;;;;;;;22.98;4.20;;;;;;;5.64;100.00;102083.22;4903365;29;20396;-73
2023/01/03 02:34:48;;;;;;;19.50;3.78;;;;;;;5.66;100.00;102086.66;4919076;29;20028;-74
2023/01/03 02:37:38;;;;;;;20.85;5.00;;;;;;;5.59;100.00;102084.47;4928161;29;20035;-73
2023/01/03 02:40:25;;;;;;;15.27;3.42;;;;;;;5.64;100.00;102088.59;4922470;29;20016;-73
2023/01/03 02:43:20;;;;;;;21.75;4.15;;;;;;;5.57;100.00;102092.63;4939603;29;20043;-73
2023/01/03 02:46:16;;;;;;;31.98;4.93;;;;;;;5.58;100.00;102099.72;4917473;29;20048;-74
2023/01/03 02:48:54;;;;;;;16.52;4.22;;;;;;;5.42;100.00;102104.34;4922935;29;20028;-74
2023/01/03 02:51:31;;;;;;;24.60;4.28;;;;;;;5.45;100.00;102096.06;4922171;29;20038;-75
2023/01/03 02:53:58;;;;;;;23.73;4.70;;;;;;;5.25;100.00;102101.81;4922689;29;20428;-73
2023/01/03 02:56:33;;;;;;;22.98;3.83;;;;;;;5.34;100.00;102101.25;4939226;29;20027;-74
2023/01/03 02:59:03;;;;;;;20.38;4.72;;;;;;;5.38;100.00;102092.91;4938449;29;20095;-73
2023/01/03 03:01:29;;;;;;;23.42;4.45;;;;;;;5.40;100.00;102095.50;4922814;29;20043;-73
2023/01/03 03:03:56;;;;;;;20.27;4.07;;;;;;;5.29;100.00;102090.81;4922354;29;20031;-72
2023/01/03 03:06:33;;;;;;;22.27;4.45;;;;;;;5.30;100.00;102097.03;4937909;29;20031;-72
2023/01/03 03:08:58;;;;;;;20.60;4.88;;;;;;;5.26;100.00;102114.28;4935601;29;20055;-73
2023/01/03 03:14:31;;;;;;;15.45;4.38;;;;;;;5.23;100.00;102098.38;4936629;29;20191;-72
2023/01/03 03:17:03;;;;;;;27.33;4.82;;;;;;;5.14;100.00;102092.59;4945216;28;20120;-72
2023/01/03 03:25:53;;;;;;;20.30;4.25;;;;;;;5.01;100.00;102115.75;4951545;29;20039;-73
2023/01/03 03:28:33;;;;;;;18.05;4.47;;;;;;;5.00;100.00;102113.16;4919017;29;20043;-73
2023/01/03 03:31:10;;;;;;;23.08;5.80;;;;;;;5.07;100.00;102120.75;4918498;29;20038;-73
2023/01/03 03:34:01;;;;;;;12.70;4.32;;;;;;;4.93;100.00;102123.41;4919299;29;20043;-73
2023/01/03 03:36:49;;;;;;;20.38;4.53;;;;;;;4.92;100.00;102120.81;4944808;28;20035;-73
2023/01/03 03:45:05;;;;;;;16.10;4.00;;;;;;;4.95;100.00;102126.00;4955333;29;20502;-73
2023/01/03 03:47:40;;;;;;;19.92;4.05;;;;;;;4.94;100.00;102125.13;4955260;28;20042;-72
2023/01/03 03:50:29;;;;;;;18.95;4.28;;;;;;;4.95;100.00;102131.34;4954867;29;20031;-72
2023/01/03 03:52:59;;;;;;;24.83;4.82;;;;;;;4.77;100.00;102149.44;4937393;29;20043;-73
2023/01/03 03:55:31;;;;;;;20.20;4.25;;;;;;;4.65;100.00;102140.28;4937742;29;20031;-73
2023/01/03 03:57:59;;;;;;;;;;;;;;;4.65;100.00;102134.03;4937833;29;20086;-72
2023/01/03 04:00:30;;;;;;;15.93;4.90;;;;;;;4.61;100.00;102134.22;4950730;29;19917;-72
2023/01/03 04:02:58;;;;;;;23.03;5.07;;;;;;;4.76;100.00;102143.22;4934323;29;20046;-73
2023/01/03 04:05:26;;;;;;;20.52;4.80;;;;;;;4.63;100.00;102136.81;4934114;29;20275;-72
2023/01/03 04:07:52;;;;;;;19.27;4.75;;;;;;;4.59;100.00;102130.75;4950076;28;20479;-73
2023/01/03 04:10:19;;;;;;;19.85;4.85;;;;;;;4.78;100.00;102140.44;4934220;29;20030;-72
2023/01/03 04:12:50;;;;;;;16.48;4.63;;;;;;;4.46;100.00;102144.97;4935165;28;20040;-73
2023/01/03 04:15:16;;;;;;;20.65;5.00;;;;;;;4.63;100.00;102137.69;4950290;28;20031;-72
2023/01/03 04:17:42;;;;;;;12.63;4.55;;;;;;;4.66;100.00;102149.19;4931007;29;20130;-73
2023/01/03 04:20:08;;;;;;;22.50;6.07;;;;;;;4.61;100.00;102154.81;4915885;29;20016;-73
2023/01/03 04:22:33;;;;;;;23.52;5.47;;;;;;;4.67;100.00;102158.97;4914977;29;20037;-73
2023/01/03 04:24:59;;;;;;;29.25;6.18;;;;;;;4.47;100.00;102157.41;4915849;29;20051;-72
2023/01/03 04:27:24;;;;;;;32.97;6.28;;;;;;;4.43;100.00;102156.72;4915432;29;20039;-72
2023/01/03 04:29:49;;;;;;;25.67;6.20;;;;;;;4.49;100.00;102161.72;4914387;29;20024;-72
2023/01/03 04:32:15;;;;;;;19.48;5.70;;;;;;;4.50;100.00;102168.84;4915932;29;20214;-72
2023/01/03 04:34:40;;;;;;;24.50;6.30;;;;;;;4.37;100.00;102173.19;4914594;29;20028;-73
2023/01/03 04:37:06;;;;;;;22.63;6.53;;;;;;;4.53;100.00;102163.28;4915522;29;20039;-72
2023/01/03 04:39:31;;;;;;;27.85;6.93;;;;;;;4.47;100.00;102158.28;4915808;29;20114;-72
2023/01/03 04:41:56;;;;;;;29.40;7.38;;;;;;;4.51;100.00;102170.56;4914533;29;20067;-73
2023/01/03 04:44:22;;;;;;;15.32;6.80;;;;;;;4.48;100.00;102168.06;4916005;29;20032;-72
2023/01/03 04:46:47;;;;;;;22.60;6.70;;;;;;;4.47;100.00;102163.66;4914155;29;20060;-72
2023/01/03 04:49:12;;;;;;;17.38;6.60;;;;;;;4.42;100.00;102159.50;4914402;29;20032;-72
2023/01/03 04:51:38;;;;;;;14.73;6.53;;;;;;;4.36;100.00;102171.41;4915641;29;20035;-72
2023/01/03 04:54:04;;;;;;;37.88;7.10;;;;;;;4.43;100.00;102172.81;4914469;29;20043;-72
2023/01/03 04:56:31;;;;;;;20.77;6.15;;;;;;;4.43;100.00;102178.16;4913967;29;20082;-73
2023/01/03 04:58:57;;;;;;;19.80;6.63;;;;;;;4.47;100.00;102178.88;4914315;29;20036;-72
2023/01/03 05:01:23;;;;;;;20.60;6.82;;;;;;;4.43;100.00;102188.03;4914079;29;20027;-72
2023/01/03 05:03:49;;;;;;;23.70;8.13;;;;;;;4.40;100.00;102178.34;4914078;29;20064;-72
2023/01/03 05:06:15;;;;;;;25.65;6.68;;;;;;;4.28;100.00;102184.41;4913889;29;20059;-72
2023/01/03 05:08:45;;;;;;;24.83;8.45;;;;;;;4.33;100.00;102185.00;4914070;29;20032;-72
2023/01/03 05:11:10;;;;;;;18.48;6.25;;;;;;;4.37;100.00;102181.22;4913457;29;20400;-72
2023/01/03 05:13:36;;;;;;;25.83;6.95;;;;;;;4.17;100.00;102192.16;4915607;29;20046;-72
2023/01/03 05:16:10;;;;;;;15.70;5.88;;;;;;;4.27;100.00;102194.25;4917264;29;20611;-71
2023/01/03 05:18:36;;;;;;;27.42;7.13;;;;;;;4.28;100.00;102189.75;4936185;29;20031;-72
2023/01/03 05:26:45;;;;;;;24.55;6.25;;;;;;;4.23;100.00;102191.81;4934289;29;20028;-72
2023/01/03 05:29:11;;;;;;;23.45;6.97;;;;;;;4.34;100.00;102190.28;4933114;29;20042;-72
2023/01/03 05:31:37;;;;;;;21.88;6.78;;;;;;;4.25;100.00;102200.66;4915964;29;20031;-72
2023/01/03 05:34:02;;;;;;;14.38;6.95;;;;;;;4.31;100.00;102200.34;4934773;29;20050;-72
2023/01/03 05:36:28;;;;;;;21.33;6.00;;;;;;;4.40;100.00;102205.16;4925858;28;20031;-72
2023/01/03 05:38:53;;;;;;;18.77;6.85;;;;;;;4.23;100.00;102198.03;4951901;29;20038;-74
2023/01/03 05:41:58;;;;;;;21.70;6.72;;;;;;;4.29;100.00;102218.28;4951230;29;20038;-72
2023/01/03 05:44:04;;;;;;;22.35;7.40;;;;;;;4.30;100.00;102201.25;4952773;29;20038;-74
2023/01/03 05:46:30;;;;;;;30.85;7.72;;;;;;;4.36;100.00;102206.28;4933737;28;20035;-74
2023/01/03 05:48:55;;;;;;;27.52;8.27;;;;;;;4.15;100.00;102211.00;4916596;29;20032;-74
2023/01/03 05:51:21;;;;;;;23.25;6.88;;;;;;;4.24;100.00;102199.81;4933193;29;20034;-74
2023/01/03 05:53:46;;;;;;;25.75;7.47;;;;;;;4.25;100.00;102206.03;4917031;29;20032;-74
2023/01/03 05:56:11;;;;;;;28.83;7.72;;;;;;;4.20;100.00;102208.09;4916131;29;20027;-74
2023/01/03 05:58:37;;;;;;;26.80;7.95;;;;;;;4.42;100.00;102207.75;4916896;29;20032;-74
2023/01/03 06:01:10;;;;;;;30.80;9.75;;;;;;;4.33;100.00;102218.06;4932212;29;20083;-74
2023/01/03 06:03:35;;;;;;;26.17;8.13;;;;;;;4.22;100.00;102211.53;4916857;29;20111;-74
2023/01/03 06:06:02;;;;;;;20.75;8.73;;;;;;;4.20;100.00;102229.53;4916062;29;20114;-73
2023/01/03 06:08:28;;;;;;;35.88;9.60;;;;;;;4.19;100.00;102222.44;4916943;29;20554;-74
2023/01/03 06:10:53;;;;;;;35.40;9.02;;;;;;;4.23;100.00;102230.22;4933253;29;20110;-74
2023/01/03 06:13:20;;;;;;;26.73;9.18;;;;;;;4.16;100.00;102230.63;4916432;29;20074;-73
2023/01/03 06:17:53;;;;;;;26.33;9.52;;;;;;;4.20;100.00;102224.19;4932107;29;20039;-72
2023/01/03 06:18:33;;;;;;;27.98;10.57;;;;;;;4.08;100.00;102231.94;4914606;29;20054;-73
2023/01/03 06:20:58;;;;;;;23.35;9.00;;;;;;;4.08;100.00;102231.94;4914153;29;20032;-72
2023/01/03 06:23:23;;;;;;;29.52;11.07;;;;;;;4.11;100.00;102232.69;4897492;29;20091;-72
2023/01/03 06:25:49;;;;;;;27.02;10.45;;;;;;;4.13;100.00;102230.81;4913388;29;20036;-73
2023/01/03 06:28:14;;;;;;;28.95;9.57;;;;;;;4.02;100.00;102237.63;4914263;29;20419;-72
2023/01/03 06:30:41;;;;;;;27.92;10.18;;;;;;;4.22;100.00;102243.72;4897028;29;20043;-72
2023/01/03 06:33:06;;;;;;;29.35;9.60;;;;;;;4.04;100.00;102241.09;4897898;29;20197;-72
2023/01/03 06:35:31;;;;;;;28.25;9.02;;;;;;;4.01;100.00;102230.53;4897605;29;20482;-72
2023/01/03 06:37:57;;;;;;;21.25;8.05;;;;;;;4.08;100.00;102229.25;4914600;29;20543;-72
2023/01/03 06:40:22;;;;;;;25.17;8.55;;;;;;;4.02;100.00;102237.63;4913087;29;20032;-73
2023/01/03 06:42:47;;;;;;;28.38;8.25;;;;;;;4.06;100.00;102239.19;4899745;29;20371;-73
2023/01/03 06:53:36;;;;;;;24.45;7.15;;;;;;;4.27;100.00;102257.75;4917800;29;20032;-73
2023/01/03 06:56:03;;;;;;;22.05;7.78;;;;;;;4.24;100.00;102268.66;4900665;29;20476;-73
2023/01/03 06:58:28;;;;;;;21.13;7.07;;;;;;;4.35;100.00;102276.94;4900669;29;20032;-73
2023/01/03 07:00:56;;;;;;;22.65;5.88;;;;;;;4.29;100.00;102288.00;4900721;29;20715;-73
2023/01/03 07:03:22;;;;;;;20.13;5.95;;;;;;;4.39;100.00;102278.53;4916329;29;20032;-73
2023/01/03 07:05:47;;;;;;;23.30;6.85;;;;;;;4.38;100.00;102284.84;4917647;29;20036;-73
2023/01/03 07:08:13;;;;;;;20.50;5.90;;;;;;;4.39;100.00;102283.88;4900869;29;20039;-73
2023/01/03 07:10:38;;;;;;;28.98;7.45;;;;;;;4.24;100.00;102293.63;4917084;29;20023;-72
2023/01/03 07:15:48;;;;;;;26.95;7.40;;;;;;;4.18;100.00;102303.81;4917526;29;20028;-72
2023/01/03 07:18:13;;;;;;;25.80;5.88;;;;;;;4.22;100.00;102302.69;4900539;29;20391;-73
2023/01/03 07:20:43;;;;;;;16.52;4.78;;;;;;;4.32;100.00;102298.59;4916107;29;20028;-73
2023/01/03 07:23:09;;;;;;;15.38;5.90;;;;;;;4.23;100.00;102301.75;4900425;29;20503;-73
2023/01/03 07:25:39;;;;;;;29.90;6.15;;;;;;;4.48;100.00;102310.19;4899633;29;20024;-71
2023/01/03 07:28:06;;;;;;;26.00;5.43;;;;;;;4.41;100.00;102318.66;4916064;29;20043;-72
2023/01/03 07:30:35;;;;;;;17.25;5.03;;;;;;;4.45;100.00;102315.75;4898532;29;20024;-71
2023/01/03 07:33:01;;;;;;;17.38;4.32;;;;;;;4.52;100.00;102311.78;4896598;29;20455;-71
2023/01/03 07:35:26;;;;;;;19.20;4.50;;;;;;;4.52;100.00;102310.91;4899705;29;20127;-72
2023/01/03 07:37:51;;;;;;;16.23;5.38;;;;;;;4.42;100.00;102310.53;4919880;29;20033;-72
2023/01/03 07:40:17;;;;;;;17.10;4.28;;;;;;;4.51;100.00;102318.09;4916213;29;20428;-72
2023/01/03 07:45:26;;;;;;;15.20;4.10;;;;;;;4.72;100.00;102323.22;4915759;29;20020;-72
2023/01/03 07:47:51;;;;;;;20.67;3.95;;;;;;;4.77;100.00;102338.13;4898978;29;20039;-72
2023/01/03 07:50:17;;;;;;;15.75;4.05;;;;;;;4.62;100.00;102345.16;4893209;29;20071;-73
2023/01/03 07:52:42;;;;;;;20.70;4.95;;;;;;;4.40;100.00;102344.63;4892184;29;20088;-72
2023/01/03 07:55:08;;;;;;;16.40;5.13;;;;;;;4.45;100.00;102347.91;4888751;29;20095;-72
2023/01/03 07:57:33;;;;;;;18.73;4.40;;;;;;;4.59;100.00;102342.66;4901921;29;20075;-72
2023/01/03 07:59:58;;;;;;;18.73;5.82;;;;;;;4.61;100.00;102338.06;4928718;29;20054;-72
2023/01/03 08:02:23;;;;;;;16.42;5.40;;;;;;;4.65;100.00;102343.28;4925287;29;20028;-71
2023/01/03 08:04:49;;;;;;;15.20;4.88;;;;;;;4.71;100.00;102348.31;4928645;29;20032;-71
2023/01/03 08:07:14;;;;;;;25.48;5.47;;;;;;;4.73;100.00;102351.78;4926874;29;20036;-71
2023/01/03 08:15:07;;;;;;;15.50;6.18;;;;;;;4.51;100.00;102355.63;4920061;29;20483;-73
2023/01/03 08:17:33;;;;;;;32.28;7.15;;;;;;;4.46;100.00;102349.66;4924777;29;20039;-72
2023/01/03 08:20:01;;;;;;;16.63;5.90;;;;;;;4.42;100.00;102353.44;4920422;29;20019;-72
2023/01/03 08:22:28;;;;;;;15.43;6.85;;;;;;;4.42;100.00;102364.16;4939447;29;20034;-73
2023/01/03 08:24:53;;;;;;;22.60;7.18;;;;;;;4.35;100.00;102365.44;4918574;29;20114;-72
2023/01/03 08:27:18;;;;;;;25.67;6.53;;;;;;;4.39;100.00;102358.97;4929896;29;20118;-73
2023/01/03 08:29:45;;;;;;;25.30;7.95;;;;;;;4.53;100.00;102369.81;4927859;29;20038;-73
2023/01/03 08:32:11;;;;;;;26.27;7.75;;;;;;;4.29;100.00;102365.75;4938151;29;20031;-72
2023/01/03 08:34:40;;;;;;;24.88;8.05;;;;;;;4.51;100.00;102369.06;4944160;29;20061;-72
2023/01/03 08:37:09;;;;;;;18.75;7.72;;;;;;;4.49;100.00;102370.06;4915386;29;20023;-72
2023/01/03 08:39:53;;;;;;;25.50;8.38;;;;;;;4.41;100.00;102361.56;4911094;29;20070;-73
2023/01/03 08:42:22;;;;;;;29.75;9.18;;;;;;;4.43;100.00;102376.63;4934886;29;20031;-73
2023/01/03 08:44:58;;;;;;;26.23;9.30;;;;;;;4.28;100.00;102377.44;4932785;29;20031;-72
2023/01/03 08:47:24;;;;;;;25.58;9.18;;;;;;;4.39;100.00;102384.94;4918118;29;20050;-73
2023/01/03 08:49:50;;;;;;;26.80;9.82;;;;;;;4.40;100.00;102374.13;4926583;29;20052;-72
2023/01/03 08:52:15;;;;;;;28.02;9.00;;;;;;;4.41;100.00;102366.94;4933299;29;20051;-73
2023/01/03 08:54:40;;;;;;;32.28;9.90;;;;;;;4.39;100.00;102385.78;4930549;29;20031;-72
2023/01/03 08:57:06;;;;;;;27.65;10.05;;;;;;;4.47;100.00;102382.69;4912221;29;20024;-73
2023/01/03 08:59:31;;;;;;;40.70;10.82;;;;;;;4.41;100.00;102383.88;4919916;29;20054;-73
2023/01/03 09:02:00;;;;;;;29.92;10.90;;;;;;;4.47;100.00;102388.94;4913761;29;20493;-72
2023/01/03 09:04:26;;;;;;;23.52;9.20;;;;;;;4.43;100.00;102386.47;4935690;28;20095;-73
2023/01/03 09:06:51;;;;;;;31.90;9.95;;;;;;;4.65;100.00;102394.25;4914657;29;20143;-72
2023/01/03 09:09:17;;;;;;;27.77;9.93;;;;;;;4.67;100.00;102400.41;4911634;29;20067;-73
2023/01/03 09:11:42;;;;;;;26.80;9.10;;;;;;;4.91;100.00;102388.34;4922664;29;20027;-72
2023/01/03 09:14:07;;;;;;;22.90;9.00;;;;;;;4.80;100.00;102409.53;4921098;29;20027;-72
2023/01/03 09:16:33;;;;;;;21.30;7.57;;;;;;;4.87;100.00;102398.38;4912517;29;20486;-73
2023/01/03 09:18:58;;;;;;;27.08;8.48;;;;;;;5.00;100.00;102398.56;4919292;29;20387;-72
2023/01/03 09:21:24;;;;;;;23.13;8.48;;;;;;;4.97;100.00;102396.06;4914192;29;20016;-72
2023/01/03 09:23:50;;;;;;;21.73;9.80;;;;;;;5.01;100.00;102411.03;4918699;29;20494;-72
2023/01/03 09:26:15;;;;;;;25.45;8.40;;;;;;;5.02;100.00;102412.78;4909951;29;20027;-73
2023/01/03 09:28:41;;;;;;;24.83;8.85;;;;;;;5.25;100.00;102413.31;4933820;29;20098;-72
2023/01/03 09:31:06;;;;;;;32.60;8.63;;;;;;;5.26;100.00;102426.66;4923540;29;20027;-73
2023/01/03 09:33:31;;;;;;;26.33;9.20;;;;;;;5.02;100.00;102418.16;4925629;29;20026;-72
2023/01/03 09:35:57;;;;;;;18.88;8.13;;;;;;;4.97;100.00;102430.97;4918535;29;20078;-73
2023/01/03 09:38:22;;;;;;;26.17;8.85;;;;;;;5.09;100.00;102424.06;4919271;29;20024;-73
2023/01/03 09:40:58;;;;;;;21.77;8.55;;;;;;;5.10;100.00;102423.97;4916754;29;20023;-72
2023/01/03 09:43:28;;;;;;;28.05;8.60;;;;;;;5.23;100.00;102425.97;4913778;29;20035;-73
2023/01/03 09:45:57;;;;;;;18.00;7.93;;;;;;;5.27;100.00;102427.50;4918097;29;20027;-72
2023/01/03 09:48:29;;;;;;;21.90;8.05;;;;;;;5.34;100.00;102427.06;4922508;29;20020;-73
2023/01/03 09:50:55;;;;;;;24.33;8.65;;;;;;;5.41;100.00;102435.66;4945705;29;20019;-73
2023/01/03 10:05:43;;;;;;;24.58;9.18;;;;;;;5.05;100.00;102439.44;4937257;29;20074;-72
2023/01/03 10:08:18;;;;;;;27.25;8.65;;;;;;;5.11;100.00;102438.25;4927477;29;20037;-73
2023/01/03 10:11:03;;;;;;;29.17;9.38;;;;;;;5.12;100.00;102435.47;4925240;29;20035;-73
2023/01/03 10:13:43;;;;;;;20.20;9.95;;;;;;;5.15;100.00;102435.31;4934541;29;20038;-72
2023/01/03 10:16:49;;;;;;;24.75;10.20;;;;;;;5.21;100.00;102439.47;4912818;28;20126;-72
2023/01/03 10:19:36;;;;;;;27.55;9.75;;;;;;;5.41;100.00;102441.03;4925532;29;20103;-71
2023/01/03 10:22:09;;;;;;;25.70;9.75;;;;;;;5.43;100.00;102439.16;4945828;29;20200;-71
2023/01/03 10:24:43;;;;;;;26.50;9.85;;;;;;;5.37;100.00;102444.84;4941508;29;20097;-71
2023/01/03 10:27:17;;;;;;;25.98;9.05;;;;;;;5.11;100.00;102444.47;4934701;29;20034;-71
2023/01/03 10:29:45;;;;;;;33.38;8.80;;;;;;;5.29;100.00;102447.13;4925050;29;20111;-71
2023/01/03 10:32:21;;;;;;;24.80;9.25;;;;;;;5.39;99.42;102438.44;4920861;29;20027;-71
2023/01/03 10:35:23;;;;;;;28.65;9.05;;;;;;;5.22;100.00;102429.63;4920521;29;20035;-71
2023/01/03 10:37:51;;;;;;;28.55;10.23;;;;;;;5.26;100.00;102439.22;4923148;29;20094;-72
2023/01/03 10:40:16;;;;;;;31.25;10.93;;;;;;;5.10;100.00;102426.66;4937861;29;20024;-72
2023/01/03 10:42:43;;;;;;;28.48;9.57;;;;;;;5.01;100.00;102437.88;4927499;29;20019;-71
2023/01/03 10:45:20;;;;;;;19.65;10.00;;;;;;;5.10;100.00;102415.91;4913220;29;20035;-72
2023/01/03 10:47:58;;;;;;;18.63;8.18;;;;;;;5.35;100.00;102403.81;4925114;29;20050;-72
2023/01/03 10:50:24;;;;;;;25.95;9.25;;;;;;;5.35;100.00;102415.41;4918420;29;20023;-72
2023/01/03 10:52:58;;;;;;;26.40;9.43;;;;;;;5.39;100.00;102421.44;4927557;29;20035;-72
2023/01/03 10:55:25;;;;;;;28.33;9.20;;;;;;;5.60;100.00;102409.47;4924606;29;20194;-72
2023/01/03 10:58:14;;;;;;;28.38;9.85;;;;;;;5.58;99.99;102416.75;4942826;28;20031;-72
2023/01/03 11:00:41;;;;;;;22.33;9.57;;;;;;;5.75;98.27;102417.63;4919139;29;20030;-72
2023/01/03 11:03:22;;;;;;;20.65;9.38;;;;;;;5.79;98.15;102424.53;4928979;29;20046;-72
2023/01/03 11:06:06;;;;;;;25.67;8.85;;;;;;;6.01;96.78;102408.94;4930446;29;20032;-73
2023/01/03 11:08:43;;;;;;;16.17;8.00;;;;;;;6.41;95.08;102422.66;4938341;28;20027;-71
2023/01/03 11:11:51;;;;;;;23.30;8.52;;;;;;;6.17;94.07;102420.50;4918245;29;20016;-72
2023/01/03 11:14:27;;;;;;;23.55;8.10;;;;;;;5.75;92.82;102428.38;4944539;28;20125;-72
2023/01/03 11:16:54;;;;;;;18.67;7.20;;;;;;;5.59;93.45;102421.19;4928930;28;20038;-72
2023/01/03 11:19:19;;;;;;;21.50;8.30;;;;;;;5.70;93.69;102415.19;4933447;28;20123;-72
2023/01/03 11:22:00;;;;;;;27.58;8.20;;;;;;;5.99;93.10;102416.19;4918037;29;20171;-72
2023/01/03 11:24:50;;;;;;;19.10;8.38;;;;;;;6.02;92.32;102405.28;4920538;29;20031;-72
2023/01/03 11:27:37;;;;;;;20.80;8.05;;;;;;;6.22;91.86;102407.63;4923904;29;20040;-71
2023/01/03 11:30:17;;;;;;;19.30;7.90;;;;;;;6.56;90.87;102405.56;4925315;29;20028;-71
2023/01/03 11:32:46;;;;;;;16.52;8.27;;;;;;;6.43;89.87;102416.22;4932936;29;20035;-71
2023/01/03 11:35:52;;;;;;;22.58;7.30;;;;;;;6.38;89.64;102412.09;4921275;29;20086;-72
2023/01/03 11:38:26;;;;;;;26.27;7.47;;;;;;;6.14;88.20;102404.56;4926470;28;20054;-72
2023/01/03 11:41:04;;;;;;;28.50;7.25;;;;;;;6.49;87.87;102404.22;4923970;29;20028;-73
2023/01/03 11:43:51;;;;;;;20.02;6.78;;;;;;;6.65;87.76;102399.66;4924212;29;20033;-73
2023/01/03 11:46:42;;;;;;;17.33;6.78;;;;;;;6.68;85.95;102385.97;4916781;29;20168;-73
2023/01/03 11:49:07;;;;;;;14.73;5.57;;;;;;;6.37;85.42;102378.06;4913138;29;20032;-73
2023/01/03 11:52:04;;;;;;;19.00;6.47;;;;;;;6.79;85.04;102380.78;4931655;29;20027;-73
2023/01/03 11:54:59;;;;;;;16.58;5.47;;;;;;;6.41;83.93;102380.50;4916361;29;20068;-73
2023/01/03 11:58:06;;;;;;;15.65;5.10;;;;;;;6.46;83.71;102372.16;4938623;28;20034;-73
2023/01/03 12:01:01;;;;;;;14.10;4.35;;;;;;;6.58;82.19;102371.34;4911446;29;20039;-72
2023/01/03 12:04:06;;;;;;;11.55;4.50;;;;;;;6.66;82.43;102369.06;4908811;29;20036;-72
2023/01/03 12:06:42;;;;;;;8.80;3.92;;;;;;;7.06;80.46;102377.31;4934457;28;20023;-72
2023/01/03 12:09:33;;;;;;;10.43;3.67;;;;;;;6.79;79.75;102370.03;4908588;29;20058;-72
2023/01/03 12:12:18;;;;;;;11.80;4.07;;;;;;;7.01;80.75;102374.03;4926337;29;20031;-73
2023/01/03 12:14:51;;;;;;;18.33;4.78;;;;;;;7.35;80.69;102373.56;4914796;29;20047;-74
2023/01/03 12:17:42;;;;;;;15.23;4.70;;;;;;;7.20;80.38;102384.50;4923975;29;20032;-71
2023/01/03 12:20:20;;;;;;;12.63;4.97;;;;;;;7.33;79.73;102380.91;4913964;29;20024;-72
2023/01/03 12:22:52;;;;;;;19.75;3.97;;;;;;;7.70;78.55;102375.78;4916157;29;20031;-71
2023/01/03 12:25:29;;;;;;;17.25;4.93;;;;;;;7.44;79.33;102365.88;4916877;29;20027;-73
2023/01/03 12:28:10;;;;;;;15.60;4.45;;;;;;;7.42;78.81;102373.16;4906756;29;20024;-71
2023/01/03 12:30:55;;;;;;;15.00;4.65;;;;;;;7.53;79.03;102370.63;4919381;29;20083;-72
2023/01/03 12:33:30;;;;;;;15.68;5.18;;;;;;;7.21;79.67;102370.91;4936821;29;20472;-72
2023/01/03 12:36:08;;;;;;;15.27;4.40;;;;;;;7.33;79.25;102380.03;4934935;29;20074;-72